Time;durP1;ratioP1;P1;durP2;ratioP2;P2;SDS_P1;SDS_P2;PMS_P1;PMS_P2;Temp;Humidity;BMP_temperature;BMP_pressure;BME280_temperature;BME280_humidity;BME280_pressure;Samples;Min_cycle;Max_cycle;Signal;HPM_P1;HPM_P2
2021/05/07 00:01:17;;;;;;;6.72;1.98;;;11.20;73.20;;;;;;5016130;28;20458;-69
2021/05/07 00:03:44;;;;;;;4.47;1.92;;;11.20;73.30;;;;;;4988298;28;20447;-72
2021/05/07 00:06:12;;;;;;;5.22;1.98;;;11.20;73.30;;;;;;5006937;28;20424;-70
2021/05/07 00:08:40;;;;;;;4.85;2.00;;;11.20;73.10;;;;;;5005856;28;20433;-71
2021/05/07 00:11:08;;;;;;;6.07;1.98;;;11.10;74.10;;;;;;5011184;28;20456;-71
2021/05/07 00:13:35;;;;;;;4.53;1.90;;;11.10;73.70;;;;;;5006931;28;20434;-74
2021/05/07 00:16:01;;;;;;;5.53;2.13;;;11.10;73.60;;;;;;5010989;28;20939;-72
2021/05/07 00:18:28;;;;;;;4.55;1.90;;;11.10;73.80;;;;;;5009665;28;20432;-72
2021/05/07 00:20:55;;;;;;;3.95;1.90;;;11.10;73.80;;;;;;5005906;28;20424;-73
2021/05/07 00:23:22;;;;;;;5.00;2.20;;;11.10;73.90;;;;;;5015524;28;20491;-72
2021/05/07 00:25:51;;;;;;;8.02;2.20;;;11.10;73.70;;;;;;5008600;28;20445;-72
2021/05/07 00:28:18;;;;;;;4.85;2.17;;;11.10;73.90;;;;;;5010334;28;20424;-71
2021/05/07 00:30:45;;;;;;;6.10;2.58;;;11.10;74.20;;;;;;5006093;28;21142;-71
2021/05/07 00:33:11;;;;;;;7.47;2.70;;;11.10;74.40;;;;;;5011595;28;20433;-72
2021/05/07 00:35:38;;;;;;;6.15;2.47;;;11.10;74.30;;;;;;5013799;28;20434;-73
2021/05/07 00:38:05;;;;;;;5.73;2.20;;;11.10;74.30;;;;;;5006333;28;20432;-72
2021/05/07 00:40:32;;;;;;;4.50;2.10;;;11.20;74.30;;;;;;5007377;28;20781;-73
2021/05/07 00:43:00;;;;;;;5.40;1.83;;;11.20;73.90;;;;;;5003932;28;20444;-71
2021/05/07 00:45:29;;;;;;;4.88;1.80;;;11.20;73.60;;;;;;4995977;28;20427;-71
2021/05/07 00:47:58;;;;;;;5.97;1.90;;;11.20;73.30;;;;;;5005511;28;20468;-70
2021/05/07 00:50:27;;;;;;;5.18;2.20;;;11.20;73.10;;;;;;5004749;28;20500;-70
2021/05/07 00:52:55;;;;;;;4.47;1.90;;;11.20;73.10;;;;;;5007232;28;20428;-70
2021/05/07 00:55:23;;;;;;;4.90;2.20;;;11.20;72.70;;;;;;4986562;28;20432;-70
2021/05/07 00:57:51;;;;;;;4.72;1.63;;;11.20;73.30;;;;;;5004836;28;20479;-69
2021/05/07 01:00:19;;;;;;;4.00;1.40;;;11.20;72.60;;;;;;5009529;28;20443;-70
2021/05/07 01:02:45;;;;;;;2.93;1.50;;;11.20;70.70;;;;;;4987832;28;20428;-73
2021/05/07 01:05:13;;;;;;;4.30;1.20;;;11.10;70.20;;;;;;5012759;28;20810;-73
2021/05/07 01:07:40;;;;;;;3.67;1.10;;;11.10;69.20;;;;;;5005630;28;20425;-73
2021/05/07 01:10:08;;;;;;;3.00;1.13;;;11.10;67.00;;;;;;5007633;28;20428;-72
2021/05/07 01:12:36;;;;;;;3.03;1.27;;;11.00;68.20;;;;;;4991115;28;20931;-70
2021/05/07 01:15:08;;;;;;;3.95;1.10;;;11.00;65.60;;;;;;5011284;28;20424;-72
2021/05/07 01:17:38;;;;;;;2.17;1.00;;;10.90;65.50;;;;;;4995799;28;20483;-73
2021/05/07 01:20:12;;;;;;;2.35;1.13;;;10.80;65.50;;;;;;4993831;28;20526;-68
2021/05/07 01:22:40;;;;;;;1.80;0.82;;;10.80;66.20;;;;;;5006364;28;20438;-72
2021/05/07 01:25:08;;;;;;;4.72;1.08;;;10.70;65.60;;;;;;5009457;28;20424;-72
2021/05/07 01:27:37;;;;;;;2.70;1.00;;;10.70;66.70;;;;;;5008651;28;20882;-71
2021/05/07 01:30:10;;;;;;;2.42;1.17;;;10.70;67.50;;;;;;5008124;28;20433;-69
2021/05/07 01:32:37;;;;;;;2.92;1.40;;;10.70;68.40;;;;;;5008465;28;20428;-71
2021/05/07 01:35:07;;;;;;;4.03;1.30;;;10.60;70.20;;;;;;5014464;28;20429;-71
2021/05/07 01:37:34;;;;;;;3.20;1.40;;;10.50;73.20;;;;;;5009169;28;20912;-70
2021/05/07 01:40:01;;;;;;;4.63;1.50;;;10.30;76.00;;;;;;5011891;28;20924;-69
2021/05/07 01:42:27;;;;;;;3.77;1.60;;;10.10;77.70;;;;;;5011550;28;20431;-70
2021/05/07 01:44:53;;;;;;;3.20;1.50;;;9.90;79.60;;;;;;5008718;28;20494;-69
2021/05/07 01:47:20;;;;;;;3.28;1.50;;;9.70;80.70;;;;;;5013357;28;20432;-70
2021/05/07 01:49:47;;;;;;;5.18;1.60;;;9.60;82.60;;;;;;5014508;28;20427;-71
2021/05/07 01:52:13;;;;;;;4.15;1.50;;;9.50;83.10;;;;;;5013595;28;20480;-69
2021/05/07 01:54:41;;;;;;;4.22;1.50;;;9.40;82.70;;;;;;5011309;28;20428;-70
2021/05/07 01:57:07;;;;;;;2.60;1.40;;;9.20;82.30;;;;;;5011816;28;20463;-71
2021/05/07 01:59:33;;;;;;;2.47;1.40;;;9.20;82.70;;;;;;5012335;28;20420;-71
2021/05/07 02:02:00;;;;;;;3.30;1.20;;;9.10;82.40;;;;;;5010654;28;20483;-71
2021/05/07 02:04:26;;;;;;;2.58;1.63;;;9.00;83.00;;;;;;5011390;28;20428;-69
2021/05/07 02:06:53;;;;;;;3.05;1.60;;;9.00;83.20;;;;;;5008059;28;20421;-70
2021/05/07 02:09:20;;;;;;;4.28;1.70;;;9.00;84.00;;;;;;5009281;28;20424;-71
2021/05/07 02:11:47;;;;;;;5.18;1.58;;;9.00;85.20;;;;;;5009170;28;20430;-69
2021/05/07 02:14:13;;;;;;;3.42;1.60;;;9.00;86.10;;;;;;5010528;28;20456;-69
2021/05/07 02:16:40;;;;;;;4.63;1.67;;;9.00;85.80;;;;;;5006526;28;20525;-70
2021/05/07 02:19:08;;;;;;;4.07;1.80;;;9.00;85.70;;;;;;5010038;28;20443;-70
2021/05/07 02:21:34;;;;;;;2.15;1.45;;;9.00;84.90;;;;;;5012043;28;20434;-70
2021/05/07 02:24:01;;;;;;;2.83;1.70;;;9.00;85.70;;;;;;4999460;28;20427;-71
2021/05/07 02:26:28;;;;;;;2.97;1.60;;;9.00;85.70;;;;;;4990655;28;20476;-70
2021/05/07 02:28:59;;;;;;;3.17;1.80;;;9.00;85.80;;;;;;4991326;28;20956;-70
2021/05/07 02:31:27;;;;;;;3.58;1.70;;;9.00;85.90;;;;;;4998496;28;20432;-70
2021/05/07 02:33:54;;;;;;;2.30;1.50;;;8.90;85.90;;;;;;5007123;28;20441;-69
2021/05/07 02:36:20;;;;;;;5.05;1.70;;;8.90;86.50;;;;;;5008599;28;20428;-71
2021/05/07 02:38:47;;;;;;;3.70;1.75;;;8.90;87.20;;;;;;4990706;28;20508;-69
2021/05/07 02:41:14;;;;;;;2.53;1.65;;;8.90;87.20;;;;;;5007531;28;20765;-70
2021/05/07 02:43:43;;;;;;;3.60;1.88;;;8.90;87.50;;;;;;5004382;28;20432;-69
2021/05/07 02:46:15;;;;;;;3.90;1.80;;;8.90;87.80;;;;;;5006165;28;20416;-71
2021/05/07 02:48:42;;;;;;;3.30;2.00;;;8.90;87.80;;;;;;5004901;28;20430;-70
2021/05/07 02:51:09;;;;;;;2.65;1.73;;;9.00;88.40;;;;;;5009989;28;20428;-69
2021/05/07 02:53:35;;;;;;;3.10;1.90;;;9.00;88.30;;;;;;5014726;28;20425;-68
2021/05/07 02:56:02;;;;;;;3.90;2.20;;;9.00;87.80;;;;;;5005871;28;20464;-70
2021/05/07 02:58:29;;;;;;;4.60;1.95;;;8.90;87.90;;;;;;5005899;28;20460;-71
2021/05/07 03:00:56;;;;;;;2.13;1.83;;;8.90;88.60;;;;;;5007342;28;20537;-73
2021/05/07 03:03:23;;;;;;;3.60;2.13;;;8.90;88.40;;;;;;5005111;28;20436;-71
2021/05/07 03:05:50;;;;;;;4.00;2.20;;;8.90;88.80;;;;;;5011684;28;20496;-69
2021/05/07 03:08:22;;;;;;;4.57;2.17;;;8.90;89.00;;;;;;5008546;28;20463;-69
2021/05/07 03:10:48;;;;;;;2.70;2.10;;;8.90;89.10;;;;;;5013246;28;20433;-70
2021/05/07 03:13:15;;;;;;;3.40;2.20;;;8.90;89.30;;;;;;5012713;28;20437;-69
2021/05/07 03:15:41;;;;;;;3.85;2.35;;;8.90;90.20;;;;;;5008442;28;20443;-70
2021/05/07 03:18:13;;;;;;;4.53;2.30;;;8.90;90.00;;;;;;5006418;28;20436;-70
2021/05/07 03:20:41;;;;;;;2.37;2.10;;;8.90;90.20;;;;;;5006799;28;20438;-69
2021/05/07 03:23:07;;;;;;;4.38;2.30;;;8.90;90.10;;;;;;5008754;28;20792;-69
2021/05/07 03:25:33;;;;;;;4.45;2.60;;;9.00;90.40;;;;;;5005728;28;20430;-70
2021/05/07 03:28:00;;;;;;;4.47;2.65;;;9.00;91.20;;;;;;5007262;28;20494;-69
2021/05/07 03:30:26;;;;;;;4.22;2.50;;;9.10;91.30;;;;;;5017122;28;20430;-72
2021/05/07 03:32:52;;;;;;;3.97;2.40;;;9.10;91.00;;;;;;5009236;28;20435;-70
2021/05/07 03:35:19;;;;;;;3.17;2.40;;;9.20;91.00;;;;;;5010101;28;20443;-71
2021/05/07 03:37:46;;;;;;;3.75;2.50;;;9.20;91.00;;;;;;5009954;28;20429;-70
2021/05/07 03:40:13;;;;;;;4.70;2.70;;;9.30;90.30;;;;;;5014096;28;20438;-70
2021/05/07 03:42:40;;;;;;;4.43;3.00;;;9.30;90.20;;;;;;5010067;28;20534;-71
2021/05/07 03:45:07;;;;;;;4.22;2.35;;;9.30;90.10;;;;;;5010845;28;20942;-72
2021/05/07 03:47:34;;;;;;;4.05;2.42;;;9.30;89.10;;;;;;5006979;28;20436;-71
2021/05/07 03:50:00;;;;;;;4.63;2.10;;;9.30;88.60;;;;;;5006811;28;20444;-71
2021/05/07 03:52:26;;;;;;;4.18;2.20;;;9.30;88.10;;;;;;5012350;28;20477;-71
2021/05/07 03:54:53;;;;;;;4.88;2.40;;;9.30;87.90;;;;;;4992002;28;20415;-71
2021/05/07 03:57:20;;;;;;;4.22;3.05;;;9.30;88.50;;;;;;5005347;28;20454;-70
2021/05/07 03:59:46;;;;;;;6.47;2.50;;;9.20;88.60;;;;;;5017081;28;20419;-71
2021/05/07 04:02:12;;;;;;;4.00;2.23;;;9.20;88.80;;;;;;5005722;28;20872;-71
2021/05/07 04:04:40;;;;;;;3.90;2.47;;;9.20;89.00;;;;;;5007747;28;20917;-72
2021/05/07 04:07:07;;;;;;;4.73;2.40;;;9.20;89.40;;;;;;5007817;28;20485;-70
2021/05/07 04:09:35;;;;;;;4.88;2.60;;;9.20;89.60;;;;;;5011909;28;20432;-70
2021/05/07 04:12:13;;;;;;;3.33;2.45;;;9.20;90.00;;;;;;5006440;28;20543;-71
2021/05/07 04:14:39;;;;;;;5.40;2.47;;;9.10;90.00;;;;;;4989998;28;20494;-70
2021/05/07 04:17:06;;;;;;;4.60;2.23;;;9.20;90.20;;;;;;5011062;28;20447;-72
2021/05/07 04:19:32;;;;;;;4.07;2.50;;;9.10;90.50;;;;;;5005799;28;20436;-70
2021/05/07 04:21:58;;;;;;;3.60;2.38;;;9.10;90.70;;;;;;5005049;28;20493;-71
2021/05/07 04:24:25;;;;;;;3.80;2.28;;;9.10;91.00;;;;;;5006478;28;20443;-71
2021/05/07 04:26:52;;;;;;;3.63;2.42;;;9.10;91.10;;;;;;5014654;28;20429;-71
2021/05/07 04:29:21;;;;;;;5.93;2.60;;;9.10;91.30;;;;;;5006541;28;20436;-71
2021/05/07 04:31:47;;;;;;;3.85;2.50;;;9.10;91.30;;;;;;5007071;28;20432;-70
2021/05/07 04:34:14;;;;;;;4.90;2.58;;;9.10;91.20;;;;;;5005879;28;20424;-69
2021/05/07 04:36:41;;;;;;;3.78;2.50;;;9.10;91.10;;;;;;5006403;28;20436;-69
2021/05/07 04:39:08;;;;;;;3.20;2.40;;;9.10;91.20;;;;;;5009735;28;21165;-70
2021/05/07 04:41:34;;;;;;;3.42;2.30;;;9.10;91.30;;;;;;5007125;28;20436;-70
2021/05/07 04:44:01;;;;;;;4.25;2.50;;;9.10;91.30;;;;;;5006107;28;20440;-70
2021/05/07 04:46:28;;;;;;;3.97;2.72;;;9.20;91.30;;;;;;5008353;28;20447;-70
2021/05/07 04:48:54;;;;;;;4.43;2.43;;;9.10;91.60;;;;;;5015589;28;20436;-71
2021/05/07 04:51:21;;;;;;;4.45;2.30;;;9.10;91.30;;;;;;5010588;28;20468;-69
2021/05/07 04:53:47;;;;;;;4.43;2.60;;;9.10;91.30;;;;;;5013335;28;21019;-70
2021/05/07 04:56:14;;;;;;;6.77;3.77;;;9.10;91.30;;;;;;5015418;28;20490;-72
2021/05/07 04:58:40;;;;;;;3.60;2.40;;;9.10;91.40;;;;;;5007137;28;20444;-72
2021/05/07 05:01:06;;;;;;;6.25;2.92;;;9.10;91.50;;;;;;5016274;28;20428;-72
2021/05/07 05:03:34;;;;;;;6.30;2.70;;;9.10;91.70;;;;;;5011801;28;20520;-71
2021/05/07 05:06:00;;;;;;;4.35;2.70;;;9.10;91.90;;;;;;5016042;28;20432;-71
2021/05/07 05:08:26;;;;;;;3.88;2.70;;;9.00;92.10;;;;;;4992165;28;20485;-72
2021/05/07 05:10:54;;;;;;;4.75;2.80;;;9.10;92.30;;;;;;5018136;28;20428;-71
2021/05/07 05:13:21;;;;;;;6.35;3.28;;;9.00;92.40;;;;;;5015607;28;20431;-71
2021/05/07 05:15:49;;;;;;;5.82;3.25;;;9.00;92.60;;;;;;5011215;28;20429;-71
2021/05/07 05:18:28;;;;;;;6.63;4.07;;;9.00;92.70;;;;;;5014351;28;20498;-71
2021/05/07 05:20:56;;;;;;;7.05;3.83;;;9.00;92.90;;;;;;5013536;28;20445;-70
2021/05/07 05:23:23;;;;;;;7.57;3.92;;;9.10;93.10;;;;;;5010937;28;20454;-71
2021/05/07 05:25:50;;;;;;;5.93;4.13;;;9.10;93.30;;;;;;5013760;28;20445;-71
2021/05/07 05:28:16;;;;;;;6.03;4.30;;;9.10;93.40;;;;;;5012709;28;20428;-69
2021/05/07 05:30:43;;;;;;;6.93;4.65;;;9.00;93.50;;;;;;5012294;28;20522;-69
2021/05/07 05:33:09;;;;;;;6.53;4.30;;;9.10;93.60;;;;;;5005144;28;20443;-70
2021/05/07 05:35:36;;;;;;;5.93;4.40;;;9.10;93.60;;;;;;5014775;28;20923;-71
2021/05/07 05:38:04;;;;;;;7.43;4.70;;;9.10;93.80;;;;;;5008458;28;20486;-71
2021/05/07 05:40:30;;;;;;;7.47;4.80;;;9.10;93.80;;;;;;5010145;28;20444;-71
2021/05/07 05:42:57;;;;;;;6.80;4.80;;;9.20;93.90;;;;;;5009164;28;20440;-70
2021/05/07 05:45:24;;;;;;;7.88;4.70;;;9.20;94.10;;;;;;5012394;28;20615;-70
2021/05/07 05:48:00;;;;;;;7.22;4.90;;;9.20;94.00;;;;;;5012880;28;21124;-70
2021/05/07 05:50:27;;;;;;;10.07;5.03;;;9.30;94.10;;;;;;5012765;28;20924;-70
2021/05/07 05:52:53;;;;;;;8.13;5.07;;;9.30;94.20;;;;;;5013417;28;20990;-69
2021/05/07 05:55:21;;;;;;;8.80;5.30;;;9.30;94.30;;;;;;5009703;28;20444;-71
2021/05/07 05:57:48;;;;;;;7.43;5.10;;;9.30;94.30;;;;;;5017764;28;20431;-71
2021/05/07 06:00:15;;;;;;;7.38;5.10;;;9.40;94.40;;;;;;5013317;28;20506;-70
2021/05/07 06:02:42;;;;;;;7.63;4.90;;;9.40;94.40;;;;;;5011661;28;20433;-69
2021/05/07 06:05:09;;;;;;;9.80;5.00;;;9.50;94.20;;;;;;5008518;28;20749;-71
2021/05/07 06:07:35;;;;;;;10.25;4.82;;;9.60;94.10;;;;;;5013922;28;20917;-70
2021/05/07 06:10:02;;;;;;;6.28;3.03;;;9.60;93.70;;;;;;5010382;28;20485;-70
2021/05/07 06:12:30;;;;;;;6.28;2.30;;;9.70;92.80;;;;;;5012793;28;20427;-70
2021/05/07 06:14:57;;;;;;;5.03;1.90;;;9.70;90.00;;;;;;5006102;28;20931;-72
2021/05/07 06:17:23;;;;;;;4.10;1.50;;;9.70;84.80;;;;;;5010356;28;20421;-71
2021/05/07 06:19:49;;;;;;;4.10;1.60;;;9.70;83.90;;;;;;5009984;28;21126;-71
2021/05/07 06:22:16;;;;;;;7.82;1.60;;;9.80;82.30;;;;;;5009973;28;20483;-71
2021/05/07 06:24:42;;;;;;;5.35;1.63;;;9.80;81.10;;;;;;5015120;28;20432;-70
2021/05/07 06:27:09;;;;;;;2.80;1.40;;;9.90;79.50;;;;;;5016086;28;20459;-71
2021/05/07 06:29:36;;;;;;;3.15;1.50;;;9.90;79.60;;;;;;5010156;28;21044;-70
2021/05/07 06:32:02;;;;;;;5.43;1.55;;;10.00;78.80;;;;;;5009309;28;20428;-69
2021/05/07 06:34:29;;;;;;;4.57;1.40;;;10.00;78.50;;;;;;5010568;28;20781;-70
2021/05/07 06:36:55;;;;;;;4.05;1.50;;;10.10;79.10;;;;;;5011635;28;20445;-70
2021/05/07 06:39:24;;;;;;;3.13;1.52;;;10.20;79.40;;;;;;5025972;28;20544;-72
2021/05/07 06:41:50;;;;;;;7.57;1.67;;;10.20;78.40;;;;;;5012113;28;20428;-71
2021/05/07 06:44:17;;;;;;;3.20;1.60;;;10.30;77.50;;;;;;5014927;28;20419;-70
2021/05/07 06:46:44;;;;;;;4.60;1.50;;;10.30;76.50;;;;;;5009657;28;20423;-72
2021/05/07 06:49:10;;;;;;;4.00;1.67;;;10.40;76.90;;;;;;5014967;28;20422;-73
2021/05/07 06:51:37;;;;;;;3.67;1.40;;;10.50;76.50;;;;;;5010153;28;20424;-72
2021/05/07 06:54:06;;;;;;;5.15;1.77;;;10.60;75.90;;;;;;5015321;28;20440;-73
2021/05/07 06:56:32;;;;;;;4.55;1.70;;;10.60;75.30;;;;;;5011150;28;20459;-72
2021/05/07 06:58:58;;;;;;;2.92;1.70;;;10.70;74.80;;;;;;5008486;28;20250;-72
2021/05/07 07:01:25;;;;;;;4.47;1.60;;;10.50;76.40;;;;;;5003545;28;20731;-72
2021/05/07 07:03:52;;;;;;;4.45;1.80;;;10.30;77.50;;;;;;5009428;28;20585;-71
2021/05/07 07:06:19;;;;;;;3.80;1.60;;;10.20;78.10;;;;;;5014591;28;20239;-72
2021/05/07 07:08:47;;;;;;;3.85;1.70;;;10.20;78.50;;;;;;5027778;28;20199;-72
2021/05/07 07:11:13;;;;;;;2.78;1.38;;;10.10;78.60;;;;;;5000410;28;20682;-72
2021/05/07 07:13:40;;;;;;;4.18;2.10;;;10.00;78.50;;;;;;5009156;28;20193;-70
2021/05/07 07:16:06;;;;;;;5.20;1.80;;;10.00;78.50;;;;;;5007600;28;20695;-70
2021/05/07 07:18:32;;;;;;;3.90;2.00;;;9.90;78.40;;;;;;5010542;28;20291;-74
2021/05/07 07:21:00;;;;;;;5.60;1.95;;;9.90;78.50;;;;;;5009302;28;20211;-72
2021/05/07 07:23:26;;;;;;;4.07;1.90;;;9.90;79.00;;;;;;5010751;28;20220;-73
2021/05/07 07:25:53;;;;;;;6.82;2.10;;;9.80;79.30;;;;;;5008951;28;20200;-73
2021/05/07 07:28:19;;;;;;;4.45;2.20;;;9.80;79.50;;;;;;5018577;28;20525;-72
2021/05/07 07:30:46;;;;;;;6.10;2.10;;;10.10;78.80;;;;;;5014488;28;20943;-70
2021/05/07 07:33:13;;;;;;;6.30;2.40;;;10.30;78.60;;;;;;5009640;28;20424;-72
2021/05/07 07:35:39;;;;;;;5.10;2.20;;;10.50;78.00;;;;;;5008159;28;20837;-71
2021/05/07 07:38:06;;;;;;;7.25;2.17;;;10.60;76.60;;;;;;5008768;28;20781;-73
2021/05/07 07:40:33;;;;;;;5.07;1.92;;;10.70;75.90;;;;;;5007585;28;20446;-70
2021/05/07 07:42:59;;;;;;;4.90;2.50;;;10.80;76.10;;;;;;5007731;28;20445;-75
2021/05/07 07:45:26;;;;;;;6.95;2.42;;;10.90;76.40;;;;;;5001480;28;20440;-72
2021/05/07 07:47:52;;;;;;;5.70;2.40;;;11.00;75.70;;;;;;4989312;28;20463;-72
2021/05/07 07:50:18;;;;;;;4.80;2.28;;;11.00;75.60;;;;;;4995667;28;20428;-71
2021/05/07 07:52:45;;;;;;;5.55;2.42;;;11.00;75.00;;;;;;4979920;28;20475;-74
2021/05/07 07:55:13;;;;;;;5.55;2.75;;;11.10;74.30;;;;;;4997467;28;20430;-72
2021/05/07 07:57:41;;;;;;;6.50;2.80;;;11.00;73.40;;;;;;4999379;28;20560;-73
2021/05/07 08:00:09;;;;;;;6.47;2.50;;;11.00;73.80;;;;;;4998086;28;20523;-72
2021/05/07 08:02:40;;;;;;;6.90;2.42;;;11.10;74.60;;;;;;4979856;28;20516;-72
2021/05/07 08:05:08;;;;;;;4.70;2.30;;;11.10;75.20;;;;;;4997780;28;20491;-72
2021/05/07 08:07:34;;;;;;;5.07;2.17;;;11.10;74.80;;;;;;5000043;28;20464;-71
2021/05/07 08:10:00;;;;;;;7.87;2.30;;;11.20;74.90;;;;;;4997603;28;20436;-72
2021/05/07 08:12:27;;;;;;;4.67;2.67;;;11.20;74.50;;;;;;5000058;28;20905;-72
2021/05/07 08:14:54;;;;;;;7.53;3.03;;;11.20;74.60;;;;;;5001899;28;20916;-71
2021/05/07 08:17:20;;;;;;;5.87;2.90;;;11.30;74.00;;;;;;4999246;28;20924;-73
2021/05/07 08:19:46;;;;;;;6.73;2.83;;;11.30;73.80;;;;;;5001508;28;20447;-72
2021/05/07 08:22:13;;;;;;;5.47;2.50;;;11.40;73.50;;;;;;4980964;28;20437;-72
2021/05/07 08:24:40;;;;;;;5.32;2.50;;;11.40;73.20;;;;;;4997384;28;20436;-73
2021/05/07 08:27:06;;;;;;;5.10;2.50;;;11.50;73.40;;;;;;5001556;28;20513;-72
2021/05/07 08:29:34;;;;;;;5.30;2.13;;;11.60;73.60;;;;;;5000123;28;20428;-73
2021/05/07 08:32:00;;;;;;;5.05;2.30;;;11.70;74.60;;;;;;4983637;28;20439;-72
2021/05/07 08:34:27;;;;;;;5.78;2.60;;;11.70;73.10;;;;;;4998707;28;20459;-72
2021/05/07 08:36:53;;;;;;;4.85;2.40;;;11.80;72.70;;;;;;5000653;28;20447;-72
2021/05/07 08:39:20;;;;;;;7.47;2.50;;;11.90;73.10;;;;;;5002206;28;20422;-73
2021/05/07 08:41:48;;;;;;;5.33;2.60;;;12.00;72.10;;;;;;5000480;28;20432;-76
2021/05/07 08:44:14;;;;;;;5.53;2.72;;;12.10;71.70;;;;;;4999089;28;20786;-73
2021/05/07 08:46:42;;;;;;;6.13;2.50;;;12.10;71.40;;;;;;4998359;28;20506;-74
2021/05/07 08:49:09;;;;;;;6.65;2.70;;;12.10;71.20;;;;;;4999946;28;20506;-76
2021/05/07 08:51:35;;;;;;;6.32;3.00;;;12.20;71.30;;;;;;4981309;28;20785;-73
2021/05/07 08:54:02;;;;;;;5.75;2.90;;;12.10;71.10;;;;;;4999953;28;20414;-73
2021/05/07 08:56:28;;;;;;;4.40;2.80;;;12.10;70.10;;;;;;4999508;28;20459;-75
2021/05/07 08:58:54;;;;;;;6.07;2.70;;;12.00;70.60;;;;;;4997335;28;21018;-71
2021/05/07 09:01:21;;;;;;;6.43;2.78;;;12.10;71.40;;;;;;5000793;28;20432;-70
2021/05/07 09:03:48;;;;;;;5.65;2.90;;;12.10;70.30;;;;;;5000021;28;20428;-74
2021/05/07 09:06:18;;;;;;;5.88;3.00;;;12.10;69.00;;;;;;4998560;28;20532;-72
2021/05/07 09:08:45;;;;;;;6.03;3.10;;;12.10;69.00;;;;;;5004606;28;20427;-72
2021/05/07 09:11:12;;;;;;;5.55;3.00;;;12.10;69.50;;;;;;4981179;28;20449;-70
2021/05/07 09:13:38;;;;;;;4.63;3.28;;;12.10;69.10;;;;;;4998963;28;20912;-71
2021/05/07 09:16:06;;;;;;;8.15;3.80;;;12.10;68.60;;;;;;5000455;28;20482;-70
2021/05/07 09:18:42;;;;;;;8.33;3.70;;;12.10;69.50;;;;;;4981697;28;20442;-71
2021/05/07 09:21:09;;;;;;;7.95;3.25;;;12.10;70.90;;;;;;4998770;28;20523;-71
2021/05/07 09:23:40;;;;;;;6.85;3.80;;;12.10;70.80;;;;;;5000215;28;20489;-70
2021/05/07 09:26:07;;;;;;;5.45;3.42;;;12.10;70.90;;;;;;4999033;28;20501;-69
2021/05/07 09:28:33;;;;;;;7.65;3.10;;;12.10;71.90;;;;;;4997622;28;20436;-72
2021/05/07 09:31:10;;;;;;;6.23;3.30;;;12.20;72.10;;;;;;4998876;28;20437;-72
2021/05/07 09:33:40;;;;;;;6.65;3.60;;;12.20;71.00;;;;;;4998671;28;20435;-71
2021/05/07 09:36:07;;;;;;;6.50;3.65;;;12.20;70.60;;;;;;5001690;28;20509;-71
2021/05/07 09:38:36;;;;;;;9.30;3.90;;;12.30;70.80;;;;;;5002075;28;20987;-72
2021/05/07 09:41:03;;;;;;;8.97;3.60;;;12.30;69.30;;;;;;5001381;28;20919;-73
2021/05/07 09:43:30;;;;;;;8.57;3.90;;;12.30;67.30;;;;;;5001811;28;20508;-71
2021/05/07 09:45:57;;;;;;;6.03;4.05;;;12.30;68.30;;;;;;5004532;28;20444;-73
2021/05/07 09:48:24;;;;;;;8.98;4.40;;;12.30;68.80;;;;;;4999666;28;21094;-73
2021/05/07 09:50:55;;;;;;;7.10;4.28;;;12.30;69.20;;;;;;5004495;28;20432;-72
2021/05/07 09:53:25;;;;;;;9.43;4.50;;;12.20;69.00;;;;;;5001173;28;20981;-71
2021/05/07 09:55:56;;;;;;;8.95;4.80;;;12.20;69.50;;;;;;5003273;28;20432;-72
2021/05/07 09:58:22;;;;;;;8.95;4.50;;;12.20;70.00;;;;;;5000936;28;20436;-70
2021/05/07 10:00:49;;;;;;;8.57;5.10;;;12.20;69.00;;;;;;5001828;28;21009;-70
2021/05/07 10:03:16;;;;;;;6.47;4.53;;;12.20;67.10;;;;;;4980538;28;20429;-70
2021/05/07 10:05:42;;;;;;;6.47;4.65;;;12.20;67.60;;;;;;4984479;28;20778;-71
2021/05/07 10:08:09;;;;;;;9.18;4.68;;;12.30;67.40;;;;;;5001384;28;20917;-70
2021/05/07 10:10:37;;;;;;;7.00;5.40;;;12.30;68.90;;;;;;4989843;28;20951;-71
2021/05/07 10:13:07;;;;;;;9.18;5.40;;;12.30;69.40;;;;;;4999442;28;20431;-71
2021/05/07 10:15:36;;;;;;;7.43;5.20;;;12.30;68.50;;;;;;5000005;28;20451;-71
2021/05/07 10:18:03;;;;;;;10.05;4.80;;;12.30;68.80;;;;;;5002608;28;20482;-72
2021/05/07 10:20:32;;;;;;;6.80;4.78;;;12.40;68.80;;;;;;5002186;28;20432;-72
2021/05/07 10:22:59;;;;;;;7.10;4.70;;;12.40;66.40;;;;;;4998698;28;20447;-73
2021/05/07 10:25:26;;;;;;;8.50;5.20;;;12.40;66.90;;;;;;5007107;28;20433;-70
2021/05/07 10:27:55;;;;;;;6.22;4.70;;;12.40;67.10;;;;;;5000995;28;20479;-72
2021/05/07 10:30:24;;;;;;;8.43;5.32;;;12.40;68.10;;;;;;5003857;28;20550;-71
2021/05/07 10:33:00;;;;;;;10.18;5.05;;;12.30;67.10;;;;;;5000831;28;20470;-72
2021/05/07 10:35:31;;;;;;;8.23;5.00;;;12.30;67.10;;;;;;5001943;28;20437;-73
2021/05/07 10:38:07;;;;;;;8.35;4.60;;;12.30;66.00;;;;;;5001095;28;20449;-72
2021/05/07 10:40:34;;;;;;;7.95;5.00;;;12.30;65.90;;;;;;4999385;28;20448;-70
2021/05/07 10:43:01;;;;;;;7.57;4.90;;;12.30;66.90;;;;;;4999689;28;20434;-73
2021/05/07 10:45:47;;;;;;;8.02;4.80;;;12.30;67.30;;;;;;5000624;28;20436;-71
2021/05/07 10:48:18;;;;;;;7.78;5.05;;;12.30;67.30;;;;;;5000810;28;20456;-72
2021/05/07 10:50:45;;;;;;;7.05;4.43;;;12.40;66.30;;;;;;5003144;28;20482;-73
2021/05/07 10:53:22;;;;;;;7.75;4.10;;;12.40;63.70;;;;;;4982487;28;20421;-73
2021/05/07 10:55:49;;;;;;;7.43;4.73;;;12.30;62.60;;;;;;5001952;28;20444;-70
2021/05/07 10:58:16;;;;;;;7.30;4.55;;;12.40;64.10;;;;;;4983576;28;20837;-72
2021/05/07 11:00:43;;;;;;;7.65;4.20;;;12.50;64.80;;;;;;5001446;28;20436;-71
2021/05/07 11:03:18;;;;;;;7.43;4.35;;;12.60;65.20;;;;;;4998446;28;20420;-72
2021/05/07 11:05:47;;;;;;;5.83;4.33;;;12.70;65.10;;;;;;4985515;28;20908;-71
2021/05/07 11:08:13;;;;;;;8.18;4.20;;;12.80;66.00;;;;;;5001835;28;20437;-71
2021/05/07 11:10:40;;;;;;;7.35;4.22;;;12.90;64.90;;;;;;5001736;28;20451;-72
2021/05/07 11:13:07;;;;;;;8.85;4.50;;;12.90;65.00;;;;;;4998716;28;20441;-71
2021/05/07 11:15:34;;;;;;;6.47;4.10;;;13.00;65.10;;;;;;4997471;28;20982;-71
2021/05/07 11:18:03;;;;;;;5.75;3.75;;;13.00;63.10;;;;;;4984348;28;20497;-71
2021/05/07 11:20:32;;;;;;;6.30;3.75;;;13.00;60.30;;;;;;4999948;28;20436;-70
2021/05/07 11:22:59;;;;;;;7.03;4.60;;;13.00;59.40;;;;;;4999239;28;20499;-72
2021/05/07 11:25:25;;;;;;;7.13;4.63;;;13.00;63.00;;;;;;4982902;28;20439;-71
2021/05/07 11:27:52;;;;;;;6.55;4.22;;;13.00;64.40;;;;;;4999029;28;20514;-70
2021/05/07 11:30:19;;;;;;;8.00;4.45;;;13.10;62.60;;;;;;5003322;28;20916;-72
2021/05/07 11:32:46;;;;;;;6.38;4.13;;;13.10;62.80;;;;;;4998902;28;20436;-72
2021/05/07 11:35:13;;;;;;;7.07;4.45;;;13.20;62.90;;;;;;4999381;28;20461;-70
2021/05/07 11:37:42;;;;;;;7.17;4.20;;;13.30;62.60;;;;;;4996881;28;20800;-72
2021/05/07 11:40:10;;;;;;;8.45;4.70;;;13.40;63.90;;;;;;5003646;28;20444;-71
2021/05/07 11:42:38;;;;;;;7.80;4.38;;;13.40;63.30;;;;;;4998283;28;20911;-71
2021/05/07 11:45:07;;;;;;;8.00;4.20;;;13.40;63.90;;;;;;5002432;28;20455;-71
2021/05/07 11:47:34;;;;;;;7.90;4.60;;;13.50;63.20;;;;;;4997712;28;20438;-71
2021/05/07 11:50:01;;;;;;;9.15;5.13;;;13.50;65.20;;;;;;5001930;28;21274;-70
2021/05/07 11:52:36;;;;;;;6.97;4.77;;;13.50;65.40;;;;;;5001714;28;20428;-71
2021/05/07 11:55:04;;;;;;;10.80;5.28;;;13.50;66.90;;;;;;5001525;28;20432;-70
2021/05/07 11:57:31;;;;;;;7.78;4.93;;;13.60;66.30;;;;;;5012243;28;20432;-72
2021/05/07 11:59:58;;;;;;;9.68;4.80;;;13.50;65.70;;;;;;5002740;28;20440;-71
2021/05/07 12:02:26;;;;;;;8.48;4.38;;;13.50;65.50;;;;;;4999639;28;20429;-71
2021/05/07 12:04:53;;;;;;;8.93;4.22;;;13.40;65.50;;;;;;5000460;28;20436;-71
2021/05/07 12:07:24;;;;;;;9.50;4.67;;;13.40;64.90;;;;;;4999835;28;20464;-71
2021/05/07 12:09:52;;;;;;;8.20;4.03;;;13.40;66.60;;;;;;5000122;28;20432;-71
2021/05/07 12:12:18;;;;;;;6.45;4.03;;;13.40;65.70;;;;;;4999282;28;20432;-71
2021/05/07 12:14:49;;;;;;;7.60;3.28;;;13.40;61.00;;;;;;4998827;28;20430;-71
2021/05/07 12:17:19;;;;;;;5.63;2.85;;;13.40;62.60;;;;;;5000268;28;20939;-71
2021/05/07 12:19:57;;;;;;;7.28;3.40;;;13.40;62.80;;;;;;5000714;28;20462;-71
2021/05/07 12:22:24;;;;;;;7.05;2.95;;;13.50;63.30;;;;;;4998980;28;20435;-71
2021/05/07 12:24:51;;;;;;;6.05;2.70;;;13.60;63.20;;;;;;4999396;28;20458;-71
2021/05/07 12:27:27;;;;;;;5.78;2.50;;;13.60;63.10;;;;;;4998863;28;20440;-73
2021/05/07 12:29:53;;;;;;;11.55;2.60;;;13.70;63.10;;;;;;4999204;28;20789;-73
2021/05/07 12:32:22;;;;;;;6.95;2.17;;;13.70;64.70;;;;;;4998060;28;20494;-72
2021/05/07 12:34:56;;;;;;;8.70;2.27;;;13.80;65.30;;;;;;5001261;28;20440;-72
2021/05/07 12:37:22;;;;;;;8.60;2.00;;;13.80;65.30;;;;;;4998950;28;20445;-71
2021/05/07 12:39:49;;;;;;;7.82;1.90;;;13.90;65.10;;;;;;4998855;28;20436;-69
2021/05/07 12:42:16;;;;;;;7.53;1.75;;;13.90;64.60;;;;;;4999700;28;20426;-72
2021/05/07 12:44:42;;;;;;;8.75;1.70;;;14.00;64.40;;;;;;4982108;28;20439;-72
2021/05/07 12:47:09;;;;;;;5.80;2.17;;;14.10;63.90;;;;;;4999640;28;20449;-69
2021/05/07 12:49:35;;;;;;;6.55;2.20;;;14.10;62.80;;;;;;5001266;28;20432;-69
2021/05/07 12:52:02;;;;;;;8.30;2.42;;;14.10;63.10;;;;;;4996854;28;20498;-71